createdAt,value
2023-06-29T00:00:12.786Z,81.99
2023-06-29T00:02:43.207Z,84.32
2023-06-29T00:05:13.316Z,83.48
2023-06-29T00:07:42.342Z,82.57
2023-06-29T00:10:12.486Z,85.15
2023-06-29T00:12:43.485Z,83.08
2023-06-29T00:15:13.619Z,85.37
2023-06-29T00:17:42.218Z,82.97
2023-06-29T00:20:12.604Z,83.67
2023-06-29T00:22:42.183Z,85.16
2023-06-29T00:25:12.208Z,86.04
2023-06-29T00:27:40.692Z,83.76
2023-06-29T00:30:10.621Z,83.44
2023-06-29T00:32:40.542Z,86.71
2023-06-29T00:35:10.157Z,82.54
2023-06-29T00:37:38.713Z,85.91
2023-06-29T00:40:09.432Z,83.60
2023-06-29T00:42:38.273Z,85.75
2023-06-29T00:45:08.498Z,86.09
2023-06-29T00:47:37.607Z,86.40
2023-06-29T00:50:09.858Z,83.98
2023-06-29T00:52:38.971Z,83.59
2023-06-29T00:55:08.604Z,85.34
2023-06-29T00:57:37.243Z,84.79
2023-06-29T01:00:11.758Z,84.98
2023-06-29T01:02:42.949Z,84.32
2023-06-29T01:05:15.419Z,86.20
2023-06-29T01:07:52.404Z,87.40
2023-06-29T01:10:26.026Z,82.56
2023-06-29T01:12:56.148Z,81.76
2023-06-29T01:15:25.303Z,85.72
2023-06-29T01:17:57.986Z,86.17
2023-06-29T01:20:28.630Z,86.33
2023-06-29T01:23:01.678Z,83.92
2023-06-29T01:25:34.175Z,83.75
2023-06-29T01:28:08.369Z,87.80
2023-06-29T01:30:40.962Z,88.16
2023-06-29T01:33:10.767Z,88.66
2023-06-29T01:35:39.585Z,86.86
2023-06-29T01:38:13.451Z,84.24
2023-06-29T01:40:46.204Z,81.79
2023-06-29T01:43:15.990Z,82.18
2023-06-29T01:45:45.469Z,81.62
2023-06-29T01:48:14.792Z,81.69
2023-06-29T01:50:43.736Z,81.46
2023-06-29T01:53:12.883Z,83.07
2023-06-29T01:55:43.661Z,82.33
2023-06-29T01:58:12.306Z,84.13
2023-06-29T02:00:40.830Z,86.34
2023-06-29T02:03:09.488Z,87.53
2023-06-29T02:05:38.029Z,84.52
2023-06-29T02:08:07.021Z,82.39
2023-06-29T02:10:35.576Z,82.41
2023-06-29T02:13:05.664Z,84.35
2023-06-29T02:15:34.175Z,86.06
2023-06-29T02:18:02.866Z,85.59
2023-06-29T02:20:31.384Z,85.59
2023-06-29T02:22:59.872Z,83.58
2023-06-29T02:25:28.354Z,83.08
2023-06-29T02:27:56.878Z,83.96
2023-06-29T02:30:26.787Z,88.07
2023-06-29T02:32:55.284Z,84.80
2023-06-29T02:35:24.058Z,86.48
2023-06-29T02:37:52.552Z,85.22
2023-06-29T02:40:21.477Z,83.52
2023-06-29T02:42:49.960Z,83.43
2023-06-29T02:45:18.568Z,83.58
2023-06-29T02:47:48.696Z,84.90
2023-06-29T02:50:17.388Z,87.41
2023-06-29T02:52:46.110Z,86.26
2023-06-29T02:55:14.885Z,86.04
2023-06-29T02:57:43.735Z,84.88
2023-06-29T03:00:13.793Z,86.21
2023-06-29T03:02:42.515Z,86.92
2023-06-29T03:05:12.764Z,85.15
2023-06-29T03:07:41.289Z,86.25
2023-06-29T03:10:10.796Z,86.54
2023-06-29T03:12:39.322Z,87.56
2023-06-29T03:15:09.139Z,87.23
2023-06-29T03:17:37.796Z,87.62
2023-06-29T03:20:07.839Z,88.75
2023-06-29T03:22:37.705Z,87.10
2023-06-29T03:25:08.874Z,89.75
2023-06-29T03:27:38.234Z,89.41
2023-06-29T03:30:09.936Z,88.83
2023-06-29T03:32:38.507Z,86.49
2023-06-29T03:35:08.764Z,84.63
2023-06-29T03:37:38.700Z,83.52
2023-06-29T03:40:09.414Z,86.85
2023-06-29T03:42:38.122Z,88.69
2023-06-29T03:45:08.427Z,87.88
2023-06-29T03:47:37.004Z,86.68
2023-06-29T03:50:06.384Z,88.26
2023-06-29T03:52:35.120Z,88.15
2023-06-29T03:55:05.695Z,86.29
2023-06-29T03:57:34.177Z,87.61
2023-06-29T04:00:04.173Z,87.74
2023-06-29T04:02:32.704Z,89.18
2023-06-29T04:05:01.259Z,89.75
2023-06-29T04:07:29.779Z,90.23
2023-06-29T04:09:58.332Z,88.73
2023-06-29T04:12:28.181Z,87.19
2023-06-29T04:14:56.713Z,85.38
2023-06-29T04:17:25.461Z,84.72
2023-06-29T04:19:54.270Z,88.66
2023-06-29T04:22:22.773Z,88.96
2023-06-29T04:24:51.501Z,86.13
2023-06-29T04:27:20.099Z,87.88
2023-06-29T04:29:49.990Z,87.97
2023-06-29T04:32:18.581Z,88.89
2023-06-29T04:34:48.966Z,86.86
2023-06-29T04:37:17.685Z,88.85
2023-06-29T04:39:46.446Z,89.04
2023-06-29T04:42:18.144Z,87.74
2023-06-29T04:44:46.647Z,86.88
2023-06-29T04:47:16.796Z,85.67
2023-06-29T04:49:52.537Z,85.94
2023-06-29T04:52:21.406Z,84.91
2023-06-29T04:54:49.867Z,85.08
2023-06-29T04:57:18.862Z,87.34
2023-06-29T04:59:47.334Z,87.83
2023-06-29T05:02:17.242Z,87.17
2023-06-29T05:04:45.749Z,86.26
2023-06-29T05:07:14.356Z,87.67
2023-06-29T05:09:42.855Z,88.34
2023-06-29T05:12:12.656Z,88.68
2023-06-29T05:14:41.155Z,89.11
2023-06-29T05:17:09.959Z,88.61
2023-06-29T05:19:40.908Z,87.40
2023-06-29T05:22:09.554Z,88.19
2023-06-29T05:24:38.725Z,88.48
2023-06-29T05:27:08.550Z,88.08
2023-06-29T05:29:37.853Z,86.81
2023-06-29T05:32:07.685Z,87.71
2023-06-29T05:34:37.029Z,87.86
2023-06-29T05:37:07.264Z,87.76
2023-06-29T05:39:35.764Z,87.59
2023-06-29T05:42:04.567Z,85.39
2023-06-29T05:44:33.079Z,85.03
2023-06-29T05:47:02.816Z,83.74
2023-06-29T05:49:31.311Z,83.04
2023-06-29T05:51:59.797Z,83.02
2023-06-29T05:54:29.653Z,82.17
2023-06-29T05:56:58.143Z,83.24
2023-06-29T05:59:26.633Z,80.37
2023-06-29T06:01:55.624Z,79.80
2023-06-29T06:04:24.235Z,78.28
2023-06-29T06:06:53.132Z,80.48
2023-06-29T06:09:21.662Z,79.85
2023-06-29T06:11:51.551Z,78.19
2023-06-29T06:14:20.069Z,77.92
2023-06-29T06:16:48.617Z,76.15
2023-06-29T06:19:17.111Z,78.35
2023-06-29T06:21:45.638Z,78.68
2023-06-29T06:24:14.147Z,78.51
2023-06-29T06:26:42.629Z,78.35
2023-06-29T06:29:12.514Z,79.83
2023-06-29T06:31:41.329Z,74.19
2023-06-29T06:34:09.894Z,73.93
2023-06-29T06:36:38.493Z,72.82
2023-06-29T06:39:07.351Z,71.53
2023-06-29T06:41:35.829Z,77.07
2023-06-29T06:44:04.531Z,77.96
2023-06-29T06:46:34.464Z,78.44
2023-06-29T06:49:03.365Z,78.79
2023-06-29T06:51:31.863Z,77.97
2023-06-29T06:54:00.375Z,76.01
2023-06-29T06:58:57.499Z,68.71
2023-06-29T07:01:26.067Z,69.67
2023-06-29T07:03:56.011Z,68.33
2023-06-29T07:06:24.805Z,67.35
2023-06-29T07:08:53.319Z,66.25
2023-06-29T07:11:21.801Z,64.66
2023-06-29T07:13:50.282Z,62.57
2023-06-29T07:16:18.887Z,61.30
2023-06-29T07:21:37.062Z,59.82
2023-06-29T07:24:08.177Z,59.92
2023-06-29T07:26:37.580Z,59.22
2023-06-29T07:29:07.511Z,59.28
2023-06-29T07:31:36.487Z,57.11
2023-06-29T07:34:06.465Z,59.62
2023-06-29T07:36:35.615Z,55.95
2023-06-29T07:39:04.346Z,49.43
2023-06-29T07:41:33.813Z,51.21
2023-06-29T07:44:02.588Z,50.93
2023-06-29T07:46:33.213Z,52.17
2023-06-29T07:49:01.904Z,51.22
2023-06-29T07:51:34.121Z,49.67
2023-06-29T07:54:03.547Z,46.95
2023-06-29T07:59:03.772Z,45.85
2023-06-29T08:01:32.429Z,43.64
2023-06-29T08:04:03.828Z,46.51
2023-06-29T08:09:06.453Z,43.62
2023-06-29T08:11:35.023Z,44.84
2023-06-29T08:14:03.761Z,46.22
2023-06-29T08:16:32.348Z,42.69
2023-06-29T08:19:01.681Z,41.63
2023-06-29T08:21:30.366Z,42.59
2023-06-29T08:24:00.866Z,41.91
2023-06-29T08:26:30.001Z,40.51
2023-06-29T08:28:58.512Z,40.59
2023-06-29T08:31:27.369Z,38.38
2023-06-29T08:33:56.045Z,38.98
2023-06-29T08:36:24.621Z,38.62
2023-06-29T08:38:53.102Z,41.03
2023-06-29T08:41:23.124Z,39.17
2023-06-29T08:43:51.693Z,38.18
2023-06-29T08:46:20.455Z,39.35
2023-06-29T08:48:49.731Z,39.54
2023-06-29T08:51:20.797Z,38.63
2023-06-29T08:53:52.169Z,39.81
2023-06-29T08:56:24.770Z,38.75
2023-06-29T08:58:54.905Z,39.39
2023-06-29T09:01:23.767Z,39.18
2023-06-29T09:03:54.203Z,38.72
2023-06-29T09:06:26.278Z,37.67
2023-06-29T09:08:56.685Z,37.96
2023-06-29T09:11:26.607Z,37.13
2023-06-29T09:13:55.757Z,37.81
2023-06-29T09:16:31.206Z,36.75
2023-06-29T09:19:55.332Z,37.24
2023-06-29T09:22:31.648Z,35.60
2023-06-29T09:25:10.284Z,34.99
2023-06-29T09:27:46.020Z,34.81
2023-06-29T09:30:20.714Z,35.37
2023-06-29T09:32:49.549Z,35.82
2023-06-29T09:35:18.091Z,36.79
2023-06-29T09:37:47.450Z,37.23
2023-06-29T09:40:16.008Z,37.34
2023-06-29T09:42:46.092Z,35.20
2023-06-29T09:45:16.119Z,34.79
2023-06-29T09:50:25.908Z,35.45
2023-06-29T09:53:00.146Z,36.63
2023-06-29T09:55:34.084Z,37.36
2023-06-29T09:58:05.027Z,37.13
2023-06-29T10:00:34.485Z,40.85
2023-06-29T10:03:03.423Z,39.57
2023-06-29T10:05:33.145Z,40.37
2023-06-29T10:08:06.170Z,41.33
2023-06-29T10:10:39.476Z,40.30
2023-06-29T10:13:09.987Z,39.56
2023-06-29T10:15:40.289Z,40.57
2023-06-29T10:18:12.967Z,39.46
2023-06-29T10:20:45.029Z,39.02
2023-06-29T10:23:17.310Z,39.74
2023-06-29T10:26:06.876Z,40.65
2023-06-29T10:28:55.628Z,37.90
2023-06-29T10:31:34.109Z,39.84
2023-06-29T10:34:03.584Z,38.15
2023-06-29T10:36:47.616Z,37.44
2023-06-29T10:39:42.134Z,35.80
2023-06-29T10:42:14.999Z,35.32
2023-06-29T10:44:49.760Z,35.83
2023-06-29T10:47:28.851Z,35.51
2023-06-29T10:50:21.490Z,36.04
2023-06-29T10:52:50.824Z,36.50
2023-06-29T10:55:21.185Z,38.09
2023-06-29T10:57:54.210Z,37.10
2023-06-29T11:00:26.794Z,38.10
2023-06-29T11:02:56.366Z,40.30
2023-06-29T11:05:25.699Z,40.81
2023-06-29T11:07:54.980Z,41.25
2023-06-29T11:10:24.714Z,41.59
2023-06-29T11:12:55.686Z,41.49
2023-06-29T11:15:28.273Z,41.14
2023-06-29T11:17:56.796Z,40.90
2023-06-29T11:20:31.291Z,39.28
2023-06-29T11:23:00.646Z,40.96
2023-06-29T11:25:30.386Z,41.33
2023-06-29T11:28:00.191Z,40.39
2023-06-29T11:30:30.445Z,40.41
2023-06-29T11:32:59.057Z,40.44
2023-06-29T11:35:27.576Z,41.04
2023-06-29T11:38:02.197Z,37.99
2023-06-29T11:40:31.565Z,37.70
2023-06-29T11:43:00.158Z,38.62
2023-06-29T11:45:30.169Z,39.31
2023-06-29T11:47:59.148Z,39.44
2023-06-29T11:50:27.842Z,40.82
2023-06-29T11:52:58.975Z,41.01
2023-06-29T11:55:28.984Z,39.88
2023-06-29T11:57:57.620Z,39.54
2023-06-29T12:00:34.320Z,40.68
2023-06-29T12:03:10.570Z,40.32
2023-06-29T12:05:44.266Z,40.35
2023-06-29T12:08:13.088Z,41.15
2023-06-29T12:10:41.792Z,40.68
2023-06-29T12:13:12.774Z,38.93
2023-06-29T12:18:18.352Z,38.98
2023-06-29T12:20:50.415Z,37.69
2023-06-29T12:23:19.925Z,37.28
2023-06-29T12:25:51.269Z,38.00
2023-06-29T12:28:20.190Z,37.52
2023-06-29T12:30:50.110Z,38.41
2023-06-29T12:33:18.903Z,39.74
2023-06-29T12:35:47.681Z,39.12
2023-06-29T12:38:16.687Z,39.29
2023-06-29T12:40:45.158Z,40.37
2023-06-29T12:43:13.839Z,40.91
2023-06-29T12:45:42.624Z,40.79
2023-06-29T12:48:12.931Z,41.43
2023-06-29T12:50:41.457Z,41.27
2023-06-29T12:53:10.148Z,41.80
2023-06-29T12:55:38.684Z,41.84
2023-06-29T12:58:07.144Z,42.91
2023-06-29T13:00:36.874Z,43.41
2023-06-29T13:03:08.926Z,42.81
2023-06-29T13:05:39.031Z,43.56
2023-06-29T13:08:07.536Z,43.31
2023-06-29T13:10:36.173Z,44.00
2023-06-29T13:13:04.977Z,43.29
2023-06-29T13:15:33.822Z,43.32
2023-06-29T13:18:02.381Z,44.77
2023-06-29T13:20:31.080Z,44.70
2023-06-29T13:23:01.676Z,44.01
2023-06-29T13:25:30.266Z,44.40
2023-06-29T13:27:58.784Z,42.96
2023-06-29T13:30:27.372Z,44.38
2023-06-29T13:32:55.940Z,44.72
2023-06-29T13:35:24.592Z,43.86
2023-06-29T13:37:53.787Z,43.57
2023-06-29T13:40:23.837Z,42.83
2023-06-29T13:42:52.314Z,43.37
2023-06-29T13:45:21.238Z,43.71
2023-06-29T13:47:49.819Z,44.16
2023-06-29T13:50:22.635Z,44.08
2023-06-29T13:52:54.003Z,42.89
2023-06-29T13:55:24.501Z,43.05
2023-06-29T13:57:53.407Z,44.02
2023-06-29T14:00:23.934Z,43.68
2023-06-29T14:02:53.741Z,43.85
2023-06-29T14:05:22.662Z,42.85
2023-06-29T14:07:51.330Z,42.98
2023-06-29T14:10:19.932Z,43.58
2023-06-29T14:12:50.102Z,44.31
2023-06-29T14:15:18.694Z,45.45
2023-06-29T14:17:47.397Z,44.82
2023-06-29T14:20:15.965Z,45.67
2023-06-29T14:22:44.787Z,45.87
2023-06-29T14:25:13.277Z,45.60
2023-06-29T14:27:41.990Z,45.79
2023-06-29T14:30:14.066Z,45.60
2023-06-29T14:32:42.861Z,46.02
2023-06-29T14:35:11.585Z,46.05
2023-06-29T14:37:40.875Z,46.30
2023-06-29T14:40:11.989Z,46.98
2023-06-29T14:42:41.467Z,46.24
2023-06-29T14:45:13.237Z,45.99
2023-06-29T14:47:42.151Z,45.40
2023-06-29T14:50:11.757Z,45.30
2023-06-29T14:52:40.618Z,45.71
2023-06-29T14:55:09.759Z,46.70
2023-06-29T14:57:38.269Z,45.74
2023-06-29T15:00:09.793Z,46.18
2023-06-29T15:02:39.721Z,46.47
2023-06-29T15:05:09.313Z,46.19
2023-06-29T15:07:37.870Z,46.67
2023-06-29T15:10:07.814Z,46.10
2023-06-29T15:12:36.320Z,45.05
2023-06-29T15:15:05.565Z,45.34
2023-06-29T15:17:34.040Z,44.43
2023-06-29T15:20:04.520Z,44.45
2023-06-29T15:22:32.987Z,45.40
2023-06-29T15:25:01.477Z,42.95
2023-06-29T15:27:30.581Z,44.64
2023-06-29T15:29:59.128Z,45.05
2023-06-29T15:32:28.619Z,44.60
2023-06-29T15:34:57.226Z,45.85
2023-06-29T15:37:27.115Z,44.54
2023-06-29T15:39:55.623Z,44.64
2023-06-29T15:42:24.134Z,45.03
2023-06-29T15:44:52.609Z,44.70
2023-06-29T15:47:21.098Z,44.91
2023-06-29T15:49:49.593Z,43.15
2023-06-29T15:52:18.144Z,44.17
2023-06-29T15:54:48.110Z,42.80
2023-06-29T15:57:16.623Z,43.91
2023-06-29T15:59:45.162Z,42.10
2023-06-29T16:02:16.097Z,42.54
2023-06-29T16:04:44.715Z,42.05
2023-06-29T16:07:13.601Z,41.84
2023-06-29T16:09:42.145Z,42.01
2023-06-29T16:12:12.609Z,42.39
2023-06-29T16:14:41.105Z,43.14
2023-06-29T16:17:09.624Z,43.14
2023-06-29T16:19:38.186Z,43.32
2023-06-29T16:22:07.929Z,43.33
2023-06-29T16:24:36.638Z,43.58
2023-06-29T16:27:06.513Z,43.58
2023-06-29T16:29:36.390Z,43.02
2023-06-29T16:32:05.865Z,42.87
2023-06-29T16:34:34.480Z,43.19
2023-06-29T16:37:03.074Z,43.55
2023-06-29T16:39:31.660Z,42.91
2023-06-29T16:42:00.703Z,44.27
2023-06-29T16:44:29.282Z,43.42
2023-06-29T16:46:59.224Z,43.67
2023-06-29T16:49:28.366Z,43.25
2023-06-29T16:51:56.868Z,43.84
2023-06-29T16:54:25.452Z,42.31
2023-06-29T16:56:54.024Z,42.96
2023-06-29T16:59:22.747Z,43.29
2023-06-29T17:01:51.447Z,44.46
2023-06-29T17:04:21.997Z,44.62
2023-06-29T17:06:50.546Z,44.36
2023-06-29T17:09:19.216Z,44.81
2023-06-29T17:11:47.743Z,45.50
2023-06-29T17:14:16.387Z,45.26
2023-06-29T17:16:44.972Z,45.34
2023-06-29T17:19:13.572Z,45.71
2023-06-29T17:21:43.438Z,46.40
2023-06-29T17:24:11.930Z,45.49
2023-06-29T17:26:40.439Z,45.38
2023-06-29T17:29:09.846Z,45.84
2023-06-29T17:31:38.867Z,46.64
2023-06-29T17:34:07.391Z,46.70
2023-06-29T17:36:36.198Z,46.73
2023-06-29T17:39:06.129Z,46.75
2023-06-29T17:41:34.796Z,45.45
2023-06-29T17:44:03.340Z,46.12
2023-06-29T17:46:32.785Z,47.64
2023-06-29T17:49:01.465Z,46.91
2023-06-29T17:51:30.309Z,48.25
2023-06-29T17:53:59.125Z,47.87
2023-06-29T17:56:29.241Z,47.74
2023-06-29T17:58:57.774Z,48.58
2023-06-29T18:01:26.344Z,48.96
2023-06-29T18:03:54.987Z,48.33
2023-06-29T18:06:23.730Z,48.88
2023-06-29T18:08:55.366Z,50.13
2023-06-29T18:11:23.923Z,49.25
2023-06-29T18:13:53.780Z,48.69
2023-06-29T18:16:22.393Z,51.51
2023-06-29T18:18:50.896Z,51.27
2023-06-29T18:21:19.432Z,53.47
2023-06-29T18:23:48.408Z,54.07
2023-06-29T18:26:17.937Z,54.39
2023-06-29T18:28:46.929Z,54.44
2023-06-29T18:31:17.214Z,56.55
2023-06-29T18:33:45.988Z,54.35
2023-06-29T18:36:14.636Z,54.80
2023-06-29T18:38:43.211Z,55.02
2023-06-29T18:41:31.211Z,54.26
2023-06-29T18:44:01.121Z,55.79
2023-06-29T18:46:33.079Z,55.13
2023-06-29T18:49:01.961Z,55.03
2023-06-29T18:51:30.467Z,54.07
2023-06-29T18:53:59.020Z,54.89
2023-06-29T18:56:27.918Z,56.67
2023-06-29T18:58:56.553Z,56.91
2023-06-29T19:01:25.100Z,57.16
2023-06-29T19:03:54.961Z,59.90
2023-06-29T19:06:23.457Z,59.71
2023-06-29T19:08:52.209Z,59.13
2023-06-29T19:11:21.213Z,60.37
2023-06-29T19:13:49.801Z,61.42
2023-06-29T19:16:19.180Z,60.47
2023-06-29T19:18:47.667Z,59.86
2023-06-29T19:21:20.755Z,60.56
2023-06-29T19:23:49.858Z,60.97
2023-06-29T19:26:18.870Z,62.28
2023-06-29T19:28:47.425Z,61.63
2023-06-29T19:31:16.583Z,62.62
2023-06-29T19:33:45.472Z,63.06
2023-06-29T19:36:13.991Z,62.88
2023-06-29T19:38:44.127Z,63.40
2023-06-29T19:41:12.757Z,63.32
2023-06-29T19:43:41.217Z,63.07
2023-06-29T19:46:09.891Z,62.25
2023-06-29T19:48:38.636Z,62.92
2023-06-29T19:51:07.612Z,63.54
2023-06-29T19:53:36.392Z,63.49
2023-06-29T19:56:07.329Z,63.44
2023-06-29T19:58:35.857Z,63.41
2023-06-29T20:01:04.462Z,64.89
2023-06-29T20:03:33.663Z,63.71
2023-06-29T20:06:02.422Z,63.50
2023-06-29T20:08:30.934Z,63.33
2023-06-29T20:10:59.470Z,63.49
2023-06-29T20:13:29.604Z,64.25
2023-06-29T20:15:58.104Z,64.23
2023-06-29T20:18:26.704Z,64.25
2023-06-29T20:20:55.440Z,65.53
2023-06-29T20:23:23.937Z,66.24
2023-06-29T20:25:52.399Z,64.75
2023-06-29T20:28:20.908Z,64.88
2023-06-29T20:30:51.031Z,66.39
2023-06-29T20:33:19.506Z,66.99
2023-06-29T20:35:48.397Z,67.38
2023-06-29T20:38:16.988Z,67.78
2023-06-29T20:40:45.596Z,67.56
2023-06-29T20:43:14.471Z,68.22
2023-06-29T20:45:44.760Z,67.97
2023-06-29T20:48:15.162Z,67.23
2023-06-29T20:50:43.904Z,67.15
2023-06-29T20:53:12.923Z,67.20
2023-06-29T20:55:41.414Z,67.35
2023-06-29T20:58:10.678Z,67.17
2023-06-29T21:00:39.896Z,66.69
2023-06-29T21:03:08.636Z,68.06
2023-06-29T21:05:38.514Z,68.29
2023-06-29T21:08:07.028Z,68.27
2023-06-29T21:10:35.604Z,69.02
2023-06-29T21:13:04.601Z,69.17
2023-06-29T21:15:33.446Z,69.21
2023-06-29T21:18:04.535Z,69.62
2023-06-29T21:20:35.987Z,68.42
2023-06-29T21:23:06.720Z,68.94
2023-06-29T21:25:35.994Z,68.97
2023-06-29T21:28:05.939Z,69.51
2023-06-29T21:30:37.796Z,69.29
2023-06-29T21:33:08.031Z,69.57
2023-06-29T21:35:37.463Z,69.82
2023-06-29T21:38:08.939Z,69.08
2023-06-29T21:40:37.448Z,69.56
2023-06-29T21:43:05.932Z,69.86
2023-06-29T21:45:34.474Z,70.30
2023-06-29T21:48:03.041Z,69.54
2023-06-29T21:50:33.867Z,70.12
2023-06-29T21:53:03.274Z,69.99
2023-06-29T21:55:33.415Z,70.17
2023-06-29T21:58:01.947Z,70.57
2023-06-29T22:00:30.948Z,70.64
2023-06-29T22:02:59.509Z,70.23
2023-06-29T22:05:28.888Z,70.63
2023-06-29T22:07:57.448Z,70.89
2023-06-29T22:10:26.640Z,71.31
2023-06-29T22:12:56.731Z,71.06
2023-06-29T22:15:25.259Z,71.17
2023-06-29T22:17:54.821Z,70.56
2023-06-29T22:20:24.185Z,70.80
2023-06-29T22:22:53.390Z,72.32
2023-06-29T22:25:22.184Z,71.39
2023-06-29T22:27:51.130Z,71.94
2023-06-29T22:30:21.233Z,71.79
2023-06-29T22:32:52.905Z,71.65
2023-06-29T22:35:22.063Z,72.56
2023-06-29T22:37:50.564Z,73.58
2023-06-29T22:40:19.183Z,73.58
2023-06-29T22:42:48.204Z,73.63
2023-06-29T22:45:16.812Z,73.87
2023-06-29T22:47:46.803Z,73.42
2023-06-29T22:50:15.454Z,73.92
2023-06-29T22:52:43.968Z,74.25
2023-06-29T22:55:12.476Z,73.60
2023-06-29T22:57:41.000Z,72.88
2023-06-29T23:00:11.928Z,73.50
2023-06-29T23:02:40.692Z,73.16
2023-06-29T23:05:11.969Z,73.50
2023-06-29T23:07:44.557Z,73.25
2023-06-29T23:10:14.503Z,74.52
2023-06-29T23:12:46.661Z,74.21
2023-06-29T23:15:15.506Z,75.01
2023-06-29T23:17:44.318Z,73.90
2023-06-29T23:20:14.816Z,73.73
2023-06-29T23:22:45.740Z,74.66
2023-06-29T23:25:14.772Z,74.45
2023-06-29T23:27:45.954Z,74.80
2023-06-29T23:30:16.838Z,76.96
2023-06-29T23:32:51.147Z,76.32
2023-06-29T23:35:21.989Z,75.96
2023-06-29T23:37:50.493Z,75.86
2023-06-29T23:40:19.512Z,76.29
2023-06-29T23:42:48.030Z,76.11
2023-06-29T23:45:17.749Z,77.10
2023-06-29T23:47:46.318Z,76.74
2023-06-29T23:50:15.008Z,76.70
2023-06-29T23:52:44.959Z,76.21
2023-06-29T23:55:13.886Z,76.88
2023-06-29T23:57:42.730Z,76.63
